Flight Track Log - Related Links

Times and Time Zones

All times are in EDT time to prevent confusion due to time zone crossing. See the RPA3446 flight status page for this flight to view local times or setup timezone preferences in your user account.

Time Position Orientation Groundspeed Altitude Reporting Facility
EDT Latitude Longitude Course Direction KTS MPH feet Rate Location/Type
Mon 06:43:25 PM 39.0333 -84.6500 44° Northeast 143 165 1,700  Level Cincinnati TRACON
Mon 06:44:49 PM 39.0167 -84.5500 102° East 244 281 4,000 1,826 Climbing Cincinnati TRACON
Mon 06:45:20 PM 39.0261 -84.5219 67° East 224 258 5,200 2,739 Climbing Indianapolis Center
Mon 06:46:00 PM 38.9721 -84.3504 67° East  Level FlightAware Approximate
Mon 06:46:21 PM 39.0536 -84.4281 69° East 273 314 8,200  Level Indianapolis Center
Mon 06:47:00 PM 39.0151 -84.2290 63° Northeast  Level FlightAware Approximate
Mon 06:47:23 PM 39.0817 -84.3256 71° East 295 339 10,800  Level Indianapolis Center
Mon 06:48:00 PM 39.0791 -84.1262 44° Northeast  Level FlightAware Approximate
Mon 06:48:25 PM 39.1158 -84.1836 73° East 340 391 13,000  Level Indianapolis Center
Mon 06:49:26 PM 39.1497 -84.0561 71° East 368 423 15,200 2,341 Climbing Indianapolis Center
Mon 06:50:28 PM 39.1814 -83.9261 73° East 378 435 17,800 2,226 Climbing Indianapolis Center
Mon 06:51:30 PM 39.2144 -83.7953 72° East 382 440 19,800 1,707 Climbing Indianapolis Center
Mon 06:52:31 PM 39.2475 -83.6606 72° East 391 450 21,300 1,415 Climbing Indianapolis Center
Mon 06:53:33 PM 39.2825 -83.5167 73° East 413 475 22,700 1,355 Climbing Indianapolis Center
Mon 06:54:35 PM 39.3256 -83.3389 73° East 433 498 24,100 1,258 Climbing Indianapolis Center
Mon 06:55:37 PM 39.3628 -83.1853 73° East 447 514 25,300 1,220 Climbing Indianapolis Center
Mon 06:56:38 PM 39.4003 -83.0269 73° East 459 528 26,600 1,268 Climbing Indianapolis Center
Mon 06:57:40 PM 39.4386 -82.8694 72° East 459 528 27,900 1,113 Climbing Indianapolis Center
Mon 06:58:42 PM 39.4764 -82.7083 73° East 463 533 28,900 1,098 Climbing Indianapolis Center
Mon 07:00:24 PM 39.5461 -82.4150 73° East 475 547 30,900 1,207 Climbing Cleveland Center
Mon 07:01:26 PM 39.5847 -82.2494 73° East 476 548 32,200 1,016 Climbing Cleveland Center
Mon 07:02:28 PM 39.6208 -82.0875 74° East 475 547 33,000 390 Climbing Cleveland Center
Mon 07:03:29 PM 39.6603 -81.9206 73° East 483 556 33,000  Level Cleveland Center
Mon 07:04:31 PM 39.6989 -81.7500 74° East 490 564 33,000  Level Cleveland Center
Mon 07:05:32 PM 39.7403 -81.5653 74° East 492 566 33,000  Level Cleveland Center
Mon 07:06:33 PM 39.7781 -81.3961 74° East 492 566 33,000  Level Cleveland Center
Mon 07:07:35 PM 39.8158 -81.2258 74° East 492 566 33,000  Level Cleveland Center
Mon 07:08:36 PM 39.8533 -81.0572 74° East 491 565 33,000  Level Cleveland Center
Mon 07:09:38 PM 39.8969 -80.8597 74° East 479 551 33,000  Level Cleveland Center
Mon 07:10:39 PM 39.9325 -80.6939 74° East 479 551 33,000  Level Cleveland Center
Mon 07:11:41 PM 39.9689 -80.5250 74° East 488 562 33,000  Level Cleveland Center
Mon 07:12:42 PM 40.0028 -80.3606 75° East 480 552 33,000  Level Cleveland Center
Mon 07:13:43 PM 40.0375 -80.1953 75° East 479 551 33,000  Level Cleveland Center
Mon 07:14:45 PM 40.0725 -80.0294 75° East 479 551 33,000  Level Cleveland Center
Mon 07:15:46 PM 40.1136 -79.8303 75° East 479 551 33,000  Level Cleveland Center
Mon 07:16:47 PM 40.1486 -79.6656 74° East 479 551 33,000  Level Cleveland Center
Mon 07:17:49 PM 40.1828 -79.4975 75° East 479 551 33,000  Level Cleveland Center
Mon 07:18:50 PM 40.2161 -79.3314 75° East 479 551 33,000  Level Cleveland Center
Mon 07:19:52 PM 40.2531 -79.1503 75° East 479 551 33,000 -98 Level Cleveland Center
Mon 07:20:53 PM 40.2853 -78.9861 76° East 476 548 32,800 -439 Descending Cleveland Center
Mon 07:21:55 PM 40.3158 -78.8194 76° East 476 548 32,100 -1,024 Descending Cleveland Center
Mon 07:22:56 PM 40.3206 -78.6489 88° East 476 548 30,700 -1,854 Descending Cleveland Center
Mon 07:23:58 PM 40.3489 -78.4492 79° East 475 547 28,300 -1,805 Descending Cleveland Center
Mon 07:24:59 PM 40.3700 -78.2856 80° East 467 537 27,000 -634 Descending Cleveland Center
Mon 07:26:01 PM 40.3708 -78.1189 90° East 464 534 27,000 -976 Level Cleveland Center
Mon 07:27:02 PM 40.3628 -77.9567 94° East 458 527 25,000 -1,122 Descending Cleveland Center
Mon 07:28:04 PM 40.3533 -77.7983 94° East 449 517 24,700 -634 Descending Cleveland Center
Mon 07:29:05 PM 40.3425 -77.6406 95° East 443 510 23,700 -1,082 Descending Cleveland Center
Mon 07:30:06 PM 40.3306 -77.4558 95° East 429 494 22,500 -992 Descending Cleveland Center
Mon 07:31:06 PM 40.3211 -77.3267 95° East 427 491 21,700 -966 Descending New York Center
Mon 07:32:04 PM 40.2947 -77.1636 102° East 415 478 20,600 -1,059 Descending New York Center
Mon 07:33:05 PM 40.2647 -77.0219 105° East 409 471 19,600 -1,024 Descending New York Center
Mon 07:34:07 PM 40.2372 -76.8728 104° East 414 476 18,500 -992 Descending New York Center
Mon 07:35:06 PM 40.2089 -76.7342 105° East 404 465 17,600 -769 Descending New York Center
Mon 07:36:04 PM 40.1856 -76.6153 104° East 387 445 17,000 -305 Descending New York Center
Mon 07:37:04 PM 40.1589 -76.4800 104° East 381 438 17,000 -350 Level New York Center
Mon 07:38:04 PM 40.1283 -76.3336 105° East 381 438 16,300 -1,328 Descending New York Center
Mon 07:39:06 PM 40.1136 -76.1994 98° East 383 441 14,300 -1,884 Descending New York Center
Mon 07:40:05 PM 40.1044 -76.0792 96° East 370 426 12,500 -1,765 Descending New York Center
Mon 07:41:05 PM 40.0975 -75.9567 94° East 360 414 10,800 -1,686 Descending New York Center
Mon 07:42:06 PM 40.0861 -75.8364 97° East 326 375 9,100 -1,400 Descending New York Center
Mon 07:43:05 PM 40.0783 -75.7244 95° East 302 348 8,000 -800 Descending New York Center
Mon 07:44:06 PM 40.0744 -75.6183 93° East 293 337 7,500 -984 Descending New York Center
Mon 07:45:07 PM 40.0683 -75.5122 94° East 293 337 6,000 -750 Descending New York Center
Mon 07:46:06 PM 40.0639 -75.4114 93° East 293 337 6,000  Level New York Center
Mon 07:47:04 PM 40.0575 -75.3081 95° East 293 337 6,000  Level New York Center
Mon 07:48:07 PM 40.0378 -75.2253 107° East 250 288 6,000 -197 Level New York Center
Mon 07:49:06 PM 40.0133 -75.1533 114° Southeast 227 261 5,600 -915 Descending New York Center
Mon 07:50:05 PM 39.9797 -75.1053 132° Southeast 212 244 4,200 -1,550 Descending New York Center
Mon 07:51:06 PM 39.9256 -75.1044 179° South 179 206 2,500 -1,400 Descending New York Center
Mon 07:52:05 PM 39.8994 -75.1353 222° Southwest 156 180 1,400 -958 Descending New York Center
Mon 07:53:05 PM 39.8850 -75.1833 249° West 146 168 600 -496 Descending New York Center
Mon 07:54:06 PM 39.8625 -75.2306 238° Southwest 141 162 400 -197 Descending New York Center
Mon 07:56:00 PM 39.8667 -75.2333 247° West  Level FlightAware Approximate

Login

Don't have an account? Register now (free) for customized features, flight alerts, and more!